sensor_id;sensor_type;location;lat;lon;timestamp;pressure;altitude;pressure_sealevel;temperature;humidity
29121;BME280;16191;49.548;8.658;2023-02-16T00:01:42;101565.91;;;-1.36;100.00
29121;BME280;16191;49.548;8.658;2023-02-16T00:04:26;101564.13;;;-1.39;100.00
29121;BME280;16191;49.548;8.658;2023-02-16T00:06:54;101569.03;;;-1.16;100.00
29121;BME280;16191;49.548;8.658;2023-02-16T00:09:23;101568.44;;;-1.06;100.00
29121;BME280;16191;49.548;8.658;2023-02-16T00:11:51;101562.03;;;-1.22;100.00
29121;BME280;16191;49.548;8.658;2023-02-16T00:14:38;101560.72;;;-1.09;100.00
29121;BME280;16191;49.548;8.658;2023-02-16T00:17:05;101553.94;;;-1.06;100.00
29121;BME280;16191;49.548;8.658;2023-02-16T00:19:37;101551.47;;;-1.02;100.00
29121;BME280;16191;49.548;8.658;2023-02-16T00:22:05;101557.56;;;-0.99;100.00
29121;BME280;16191;49.548;8.658;2023-02-16T00:24:33;101553.34;;;-0.97;100.00
29121;BME280;16191;49.548;8.658;2023-02-16T00:27:00;101545.59;;;-0.98;100.00
29121;BME280;16191;49.548;8.658;2023-02-16T00:29:32;101538.84;;;-0.96;100.00
29121;BME280;16191;49.548;8.658;2023-02-16T00:32:01;101547.66;;;-0.87;100.00
29121;BME280;16191;49.548;8.658;2023-02-16T00:34:32;101553.38;;;-0.95;100.00
29121;BME280;16191;49.548;8.658;2023-02-16T00:37:09;101548.47;;;-0.88;100.00
29121;BME280;16191;49.548;8.658;2023-02-16T00:39:37;101552.72;;;-0.88;100.00
29121;BME280;16191;49.548;8.658;2023-02-16T00:42:06;101560.44;;;-1.18;100.00
29121;BME280;16191;49.548;8.658;2023-02-16T00:44:40;101571.00;;;-1.38;100.00
29121;BME280;16191;49.548;8.658;2023-02-16T00:47:17;101579.69;;;-1.32;100.00
29121;BME280;16191;49.548;8.658;2023-02-16T00:49:47;101568.81;;;-1.24;100.00
29121;BME280;16191;49.548;8.658;2023-02-16T00:54:56;101570.28;;;-1.02;100.00
29121;BME280;16191;49.548;8.658;2023-02-16T00:57:24;101565.31;;;-0.96;100.00
29121;BME280;16191;49.548;8.658;2023-02-16T00:59:58;101562.84;;;-0.93;100.00
29121;BME280;16191;49.548;8.658;2023-02-16T01:02:26;101564.63;;;-0.90;100.00
29121;BME280;16191;49.548;8.658;2023-02-16T01:04:54;101571.53;;;-0.88;100.00
29121;BME280;16191;49.548;8.658;2023-02-16T01:07:22;101566.63;;;-0.79;100.00
29121;BME280;16191;49.548;8.658;2023-02-16T01:10:09;101568.25;;;-0.82;100.00
29121;BME280;16191;49.548;8.658;2023-02-16T01:12:56;101552.72;;;-0.88;100.00
29121;BME280;16191;49.548;8.658;2023-02-16T01:15:23;101558.84;;;-0.82;100.00
29121;BME280;16191;49.548;8.658;2023-02-16T01:17:52;101564.28;;;-1.02;100.00
29121;BME280;16191;49.548;8.658;2023-02-16T01:20:23;101563.44;;;-1.01;100.00
29121;BME280;16191;49.548;8.658;2023-02-16T01:22:50;101551.72;;;-0.93;100.00
29121;BME280;16191;49.548;8.658;2023-02-16T01:25:17;101559.59;;;-0.86;100.00
29121;BME280;16191;49.548;8.658;2023-02-16T01:28:20;101571.53;;;-0.86;100.00
29121;BME280;16191;49.548;8.658;2023-02-16T01:31:11;101564.31;;;-1.01;100.00
29121;BME280;16191;49.548;8.658;2023-02-16T01:33:58;101555.25;;;-0.90;100.00
29121;BME280;16191;49.548;8.658;2023-02-16T01:36:48;101565.97;;;-1.03;100.00
29121;BME280;16191;49.548;8.658;2023-02-16T01:39:34;101564.88;;;-1.13;100.00
29121;BME280;16191;49.548;8.658;2023-02-16T01:45:02;101561.72;;;-1.02;100.00
29121;BME280;16191;49.548;8.658;2023-02-16T01:47:37;101549.81;;;-1.00;100.00
29121;BME280;16191;49.548;8.658;2023-02-16T01:50:31;101554.53;;;-1.16;100.00
29121;BME280;16191;49.548;8.658;2023-02-16T01:53:09;101562.59;;;-1.02;100.00
29121;BME280;16191;49.548;8.658;2023-02-16T01:55:42;101564.31;;;-1.32;100.00
29121;BME280;16191;49.548;8.658;2023-02-16T01:58:38;101568.38;;;-1.39;100.00
29121;BME280;16191;49.548;8.658;2023-02-16T02:01:38;101569.25;;;-1.39;100.00
29121;BME280;16191;49.548;8.658;2023-02-16T02:04:21;101564.81;;;-1.44;100.00
29121;BME280;16191;49.548;8.658;2023-02-16T02:07:11;101577.31;;;-1.55;100.00
29121;BME280;16191;49.548;8.658;2023-02-16T02:10:09;101576.94;;;-1.39;100.00
29121;BME280;16191;49.548;8.658;2023-02-16T02:12:42;101568.78;;;-1.25;100.00
29121;BME280;16191;49.548;8.658;2023-02-16T02:15:12;101569.81;;;-1.19;100.00
29121;BME280;16191;49.548;8.658;2023-02-16T02:17:41;101561.44;;;-1.13;100.00
29121;BME280;16191;49.548;8.658;2023-02-16T02:20:16;101552.09;;;-1.11;100.00
29121;BME280;16191;49.548;8.658;2023-02-16T02:23:32;101556.09;;;-1.21;100.00
29121;BME280;16191;49.548;8.658;2023-02-16T02:35:19;101518.84;;;-1.10;100.00
29121;BME280;16191;49.548;8.658;2023-02-16T02:43:26;101524.09;;;-1.36;100.00
29121;BME280;16191;49.548;8.658;2023-02-16T02:46:09;101537.84;;;-1.33;100.00
29121;BME280;16191;49.548;8.658;2023-02-16T02:48:38;101534.22;;;-1.10;100.00
29121;BME280;16191;49.548;8.658;2023-02-16T02:54:18;101548.81;;;-1.37;100.00
29121;BME280;16191;49.548;8.658;2023-02-16T02:57:16;101542.91;;;-1.34;100.00
29121;BME280;16191;49.548;8.658;2023-02-16T03:02:55;101540.94;;;-1.13;100.00
29121;BME280;16191;49.548;8.658;2023-02-16T03:05:22;101532.44;;;-1.12;100.00
29121;BME280;16191;49.548;8.658;2023-02-16T03:07:54;101554.34;;;-1.22;100.00
29121;BME280;16191;49.548;8.658;2023-02-16T03:10:25;101562.94;;;-1.50;100.00
29121;BME280;16191;49.548;8.658;2023-02-16T03:13:17;101555.97;;;-1.55;100.00
29121;BME280;16191;49.548;8.658;2023-02-16T03:15:47;101551.72;;;-1.55;100.00
29121;BME280;16191;49.548;8.658;2023-02-16T03:18:15;101555.72;;;-1.34;100.00
29121;BME280;16191;49.548;8.658;2023-02-16T03:21:01;101558.09;;;-1.41;100.00
29121;BME280;16191;49.548;8.658;2023-02-16T03:23:49;101555.59;;;-1.39;100.00
29121;BME280;16191;49.548;8.658;2023-02-16T03:26:36;101552.16;;;-1.40;100.00
29121;BME280;16191;49.548;8.658;2023-02-16T03:29:23;101551.19;;;-1.43;100.00
29121;BME280;16191;49.548;8.658;2023-02-16T03:31:52;101546.59;;;-1.55;100.00
29121;BME280;16191;49.548;8.658;2023-02-16T03:34:20;101559.75;;;-1.71;100.00
29121;BME280;16191;49.548;8.658;2023-02-16T03:36:50;101563.81;;;-1.49;100.00
29121;BME280;16191;49.548;8.658;2023-02-16T03:39:18;101565.44;;;-1.81;100.00
29121;BME280;16191;49.548;8.658;2023-02-16T03:41:48;101557.38;;;-1.65;100.00
29121;BME280;16191;49.548;8.658;2023-02-16T03:44:16;101559.13;;;-1.64;100.00
29121;BME280;16191;49.548;8.658;2023-02-16T03:46:44;101556.97;;;-1.50;100.00
29121;BME280;16191;49.548;8.658;2023-02-16T03:49:11;101558.59;;;-1.54;100.00
29121;BME280;16191;49.548;8.658;2023-02-16T03:51:38;101552.03;;;-1.44;100.00
29121;BME280;16191;49.548;8.658;2023-02-16T03:54:04;101554.72;;;-1.40;100.00
29121;BME280;16191;49.548;8.658;2023-02-16T03:56:31;101554.06;;;-1.62;100.00
29121;BME280;16191;49.548;8.658;2023-02-16T03:58:58;101564.91;;;-1.41;100.00
29121;BME280;16191;49.548;8.658;2023-02-16T04:01:25;101568.72;;;-1.27;100.00
29121;BME280;16191;49.548;8.658;2023-02-16T04:03:52;101566.00;;;-1.33;100.00
29121;BME280;16191;49.548;8.658;2023-02-16T04:06:18;101565.88;;;-1.66;100.00
29121;BME280;16191;49.548;8.658;2023-02-16T04:08:45;101561.34;;;-1.46;100.00
29121;BME280;16191;49.548;8.658;2023-02-16T04:11:12;101560.53;;;-1.45;100.00
29121;BME280;16191;49.548;8.658;2023-02-16T04:13:57;101566.84;;;-1.34;100.00
29121;BME280;16191;49.548;8.658;2023-02-16T04:16:24;101558.16;;;-1.39;100.00
29121;BME280;16191;49.548;8.658;2023-02-16T04:18:50;101559.59;;;-1.47;100.00
29121;BME280;16191;49.548;8.658;2023-02-16T04:21:17;101566.94;;;-1.29;100.00
29121;BME280;16191;49.548;8.658;2023-02-16T04:23:44;101569.16;;;-1.42;100.00
29121;BME280;16191;49.548;8.658;2023-02-16T04:26:11;101577.47;;;-1.49;100.00
29121;BME280;16191;49.548;8.658;2023-02-16T04:28:37;101574.19;;;-1.45;100.00
29121;BME280;16191;49.548;8.658;2023-02-16T04:31:04;101572.41;;;-1.47;100.00
29121;BME280;16191;49.548;8.658;2023-02-16T04:33:31;101567.13;;;-1.23;100.00
29121;BME280;16191;49.548;8.658;2023-02-16T04:35:58;101577.94;;;-1.33;100.00
29121;BME280;16191;49.548;8.658;2023-02-16T04:38:25;101572.91;;;-1.30;100.00
29121;BME280;16191;49.548;8.658;2023-02-16T04:40:52;101559.38;;;-1.25;100.00
29121;BME280;16191;49.548;8.658;2023-02-16T04:43:18;101556.69;;;-1.29;100.00
29121;BME280;16191;49.548;8.658;2023-02-16T04:45:45;101558.25;;;-1.36;100.00
29121;BME280;16191;49.548;8.658;2023-02-16T04:48:12;101558.63;;;-1.22;100.00
29121;BME280;16191;49.548;8.658;2023-02-16T04:50:38;101557.56;;;-1.30;100.00
29121;BME280;16191;49.548;8.658;2023-02-16T04:53:06;101555.13;;;-1.24;100.00
29121;BME280;16191;49.548;8.658;2023-02-16T04:55:32;101557.19;;;-1.13;100.00
29121;BME280;16191;49.548;8.658;2023-02-16T04:57:59;101554.34;;;-1.22;100.00
29121;BME280;16191;49.548;8.658;2023-02-16T05:00:26;101554.59;;;-1.14;100.00
29121;BME280;16191;49.548;8.658;2023-02-16T05:02:53;101554.53;;;-1.16;100.00
29121;BME280;16191;49.548;8.658;2023-02-16T05:05:20;101543.78;;;-1.02;100.00
29121;BME280;16191;49.548;8.658;2023-02-16T05:07:47;101539.44;;;-1.05;100.00
29121;BME280;16191;49.548;8.658;2023-02-16T05:10:13;101535.28;;;-1.01;100.00
29121;BME280;16191;49.548;8.658;2023-02-16T05:12:40;101534.41;;;-1.02;100.00
29121;BME280;16191;49.548;8.658;2023-02-16T05:15:26;101547.25;;;-1.00;100.00
29121;BME280;16191;49.548;8.658;2023-02-16T05:17:52;101545.53;;;-1.01;100.00
29121;BME280;16191;49.548;8.658;2023-02-16T05:20:19;101552.50;;;-0.96;100.00
29121;BME280;16191;49.548;8.658;2023-02-16T05:23:06;101552.44;;;-0.99;100.00
29121;BME280;16191;49.548;8.658;2023-02-16T05:25:33;101559.50;;;-0.90;100.00
29121;BME280;16191;49.548;8.658;2023-02-16T05:27:59;101553.56;;;-0.89;100.00
29121;BME280;16191;49.548;8.658;2023-02-16T05:30:26;101551.78;;;-0.92;100.00
29121;BME280;16191;49.548;8.658;2023-02-16T05:32:53;101555.91;;;-0.97;100.00
29121;BME280;16191;49.548;8.658;2023-02-16T05:35:19;101557.91;;;-0.87;100.00
29121;BME280;16191;49.548;8.658;2023-02-16T05:37:46;101549.44;;;-0.83;100.00
29121;BME280;16191;49.548;8.658;2023-02-16T05:40:13;101550.91;;;-0.92;100.00
29121;BME280;16191;49.548;8.658;2023-02-16T05:42:39;101542.53;;;-0.85;100.00
29121;BME280;16191;49.548;8.658;2023-02-16T05:45:06;101542.69;;;-0.79;100.00
29121;BME280;16191;49.548;8.658;2023-02-16T05:47:33;101546.09;;;-0.80;100.00
29121;BME280;16191;49.548;8.658;2023-02-16T05:49:59;101553.72;;;-0.82;100.00
29121;BME280;16191;49.548;8.658;2023-02-16T05:52:26;101557.22;;;-0.80;100.00
29121;BME280;16191;49.548;8.658;2023-02-16T05:54:52;101559.84;;;-0.77;100.00
29121;BME280;16191;49.548;8.658;2023-02-16T05:57:19;101568.44;;;-0.75;100.00
29121;BME280;16191;49.548;8.658;2023-02-16T05:59:46;101572.72;;;-0.75;100.00
29121;BME280;16191;49.548;8.658;2023-02-16T06:02:13;101576.22;;;-0.72;100.00
29121;BME280;16191;49.548;8.658;2023-02-16T06:04:39;101567.53;;;-0.77;100.00
29121;BME280;16191;49.548;8.658;2023-02-16T06:07:06;101557.34;;;-0.75;100.00
29121;BME280;16191;49.548;8.658;2023-02-16T06:09:33;101548.78;;;-0.76;100.00
29121;BME280;16191;49.548;8.658;2023-02-16T06:11:59;101554.06;;;-0.70;100.00
29121;BME280;16191;49.548;8.658;2023-02-16T06:14:26;101547.22;;;-0.71;100.00
29121;BME280;16191;49.548;8.658;2023-02-16T06:16:53;101545.44;;;-0.73;100.00
29121;BME280;16191;49.548;8.658;2023-02-16T06:19:22;101549.81;;;-0.69;100.00
29121;BME280;16191;49.548;8.658;2023-02-16T06:21:48;101548.13;;;-0.68;100.00
29121;BME280;16191;49.548;8.658;2023-02-16T06:24:15;101555.94;;;-0.62;100.00
29121;BME280;16191;49.548;8.658;2023-02-16T06:26:42;101552.41;;;-0.67;100.00
29121;BME280;16191;49.548;8.658;2023-02-16T06:29:09;101552.34;;;-0.71;100.00
29121;BME280;16191;49.548;8.658;2023-02-16T06:31:36;101554.94;;;-0.69;100.00
29121;BME280;16191;49.548;8.658;2023-02-16T06:34:03;101556.59;;;-0.71;100.00
29121;BME280;16191;49.548;8.658;2023-02-16T06:36:31;101559.19;;;-0.70;100.00
29121;BME280;16191;49.548;8.658;2023-02-16T06:38:58;101567.03;;;-0.63;100.00
29121;BME280;16191;49.548;8.658;2023-02-16T06:41:25;101567.03;;;-0.63;100.00
29121;BME280;16191;49.548;8.658;2023-02-16T06:44:03;101559.19;;;-0.70;100.00
29121;BME280;16191;49.548;8.658;2023-02-16T06:46:30;101566.13;;;-0.65;100.00
29121;BME280;16191;49.548;8.658;2023-02-16T06:48:58;101567.94;;;-0.61;100.00
29121;BME280;16191;49.548;8.658;2023-02-16T06:51:25;101567.78;;;-0.67;100.00
29121;BME280;16191;49.548;8.658;2023-02-16T06:53:52;101567.84;;;-0.66;100.00
29121;BME280;16191;49.548;8.658;2023-02-16T06:56:18;101580.53;;;-0.71;100.00
29121;BME280;16191;49.548;8.658;2023-02-16T06:58:45;101580.78;;;-0.60;100.00
29121;BME280;16191;49.548;8.658;2023-02-16T07:01:11;101587.59;;;-0.60;100.00
29121;BME280;16191;49.548;8.658;2023-02-16T07:03:38;101589.38;;;-0.58;100.00
29121;BME280;16191;49.548;8.658;2023-02-16T07:06:05;101589.38;;;-0.58;100.00
29121;BME280;16191;49.548;8.658;2023-02-16T07:08:32;101592.72;;;-0.60;100.00
29121;BME280;16191;49.548;8.658;2023-02-16T07:11:01;101595.56;;;-0.51;100.00
29121;BME280;16191;49.548;8.658;2023-02-16T07:13:27;101591.38;;;-0.48;100.00
29121;BME280;16191;49.548;8.658;2023-02-16T07:15:56;101585.22;;;-0.54;100.00
29121;BME280;16191;49.548;8.658;2023-02-16T07:18:22;101589.69;;;-0.47;100.00
29121;BME280;16191;49.548;8.658;2023-02-16T07:20:49;101594.16;;;-0.39;100.00
29121;BME280;16191;49.548;8.658;2023-02-16T07:23:16;101589.88;;;-0.38;100.00
29121;BME280;16191;49.548;8.658;2023-02-16T07:25:43;101596.72;;;-0.39;100.00
29121;BME280;16191;49.548;8.658;2023-02-16T07:28:09;101584.81;;;-0.37;100.00
29121;BME280;16191;49.548;8.658;2023-02-16T07:30:36;101596.75;;;-0.37;100.00
29121;BME280;16191;49.548;8.658;2023-02-16T07:33:03;101578.09;;;-0.31;100.00
29121;BME280;16191;49.548;8.658;2023-02-16T07:35:29;101575.56;;;-0.30;100.00
29121;BME280;16191;49.548;8.658;2023-02-16T07:37:56;101579.94;;;-0.26;100.00
29121;BME280;16191;49.548;8.658;2023-02-16T07:40:23;101582.44;;;-0.29;100.00
29121;BME280;16191;49.548;8.658;2023-02-16T07:42:50;101583.44;;;-0.24;100.00
29121;BME280;16191;49.548;8.658;2023-02-16T07:45:16;101574.91;;;-0.21;100.00
29121;BME280;16191;49.548;8.658;2023-02-16T07:47:43;101578.19;;;-0.28;100.00
29121;BME280;16191;49.548;8.658;2023-02-16T07:50:10;101580.06;;;-0.20;100.00
29121;BME280;16191;49.548;8.658;2023-02-16T07:52:37;101581.78;;;-0.20;100.00
29121;BME280;16191;49.548;8.658;2023-02-16T07:55:05;101573.53;;;-0.09;100.00
29121;BME280;16191;49.548;8.658;2023-02-16T07:57:32;101568.56;;;-0.01;100.00
29121;BME280;16191;49.548;8.658;2023-02-16T07:59:59;101570.50;;;0.09;100.00
29121;BME280;16191;49.548;8.658;2023-02-16T08:02:25;101569.78;;;0.15;100.00
29121;BME280;16191;49.548;8.658;2023-02-16T08:04:52;101562.41;;;0.30;100.00
29121;BME280;16191;49.548;8.658;2023-02-16T08:07:20;101569.50;;;0.40;100.00
29121;BME280;16191;49.548;8.658;2023-02-16T08:09:47;101563.00;;;0.57;100.00
29121;BME280;16191;49.548;8.658;2023-02-16T08:12:15;101562.41;;;0.71;100.00
29121;BME280;16191;49.548;8.658;2023-02-16T08:14:43;101556.59;;;0.79;100.00
29121;BME280;16191;49.548;8.658;2023-02-16T08:17:14;101568.00;;;0.93;100.00
29121;BME280;16191;49.548;8.658;2023-02-16T08:19:42;101563.88;;;1.00;100.00
29121;BME280;16191;49.548;8.658;2023-02-16T08:22:08;101568.41;;;1.15;100.00
29121;BME280;16191;49.548;8.658;2023-02-16T08:24:36;101571.97;;;1.21;100.00
29121;BME280;16191;49.548;8.658;2023-02-16T08:27:04;101574.66;;;1.27;100.00
29121;BME280;16191;49.548;8.658;2023-02-16T08:29:32;101559.59;;;1.47;100.00
29121;BME280;16191;49.548;8.658;2023-02-16T08:31:59;101557.00;;;1.47;100.00
29121;BME280;16191;49.548;8.658;2023-02-16T08:34:28;101558.25;;;1.70;100.00
29121;BME280;16191;49.548;8.658;2023-02-16T08:36:56;101564.44;;;1.83;100.00
29121;BME280;16191;49.548;8.658;2023-02-16T08:39:25;101558.41;;;1.81;100.00
29121;BME280;16191;49.548;8.658;2023-02-16T08:41:53;101558.41;;;1.81;100.00
29121;BME280;16191;49.548;8.658;2023-02-16T08:44:22;101557.56;;;1.82;100.00
29121;BME280;16191;49.548;8.658;2023-02-16T08:46:55;101551.66;;;1.88;100.00
29121;BME280;16191;49.548;8.658;2023-02-16T08:49:22;101556.78;;;1.86;100.00
29121;BME280;16191;49.548;8.658;2023-02-16T08:51:51;101556.94;;;1.97;100.00
29121;BME280;16191;49.548;8.658;2023-02-16T08:54:25;101555.50;;;2.14;100.00
29121;BME280;16191;49.548;8.658;2023-02-16T08:56:53;101565.13;;;2.29;100.00
29121;BME280;16191;49.548;8.658;2023-02-16T08:59:22;101557.75;;;2.55;100.00
29121;BME280;16191;49.548;8.658;2023-02-16T09:01:52;101555.31;;;2.65;100.00
29121;BME280;16191;49.548;8.658;2023-02-16T09:04:19;101556.56;;;2.98;100.00
29121;BME280;16191;49.548;8.658;2023-02-16T09:06:46;101547.84;;;2.88;100.00
29121;BME280;16191;49.548;8.658;2023-02-16T09:09:18;101550.44;;;2.90;100.00
29121;BME280;16191;49.548;8.658;2023-02-16T09:11:45;101548.00;;;3.02;100.00
29121;BME280;16191;49.548;8.658;2023-02-16T09:14:12;101544.69;;;3.14;100.00
29121;BME280;16191;49.548;8.658;2023-02-16T09:16:39;101550.75;;;3.17;100.00
29121;BME280;16191;49.548;8.658;2023-02-16T09:19:19;101545.91;;;3.52;100.00
29121;BME280;16191;49.548;8.658;2023-02-16T09:21:47;101540.75;;;3.52;100.00
29121;BME280;16191;49.548;8.658;2023-02-16T09:24:14;101545.34;;;3.87;100.00
29121;BME280;16191;49.548;8.658;2023-02-16T09:26:42;101548.94;;;4.08;100.00
29121;BME280;16191;49.548;8.658;2023-02-16T09:29:11;101543.84;;;4.24;100.00
29121;BME280;16191;49.548;8.658;2023-02-16T09:31:40;101541.22;;;4.19;100.00
29121;BME280;16191;49.548;8.658;2023-02-16T09:34:20;101547.53;;;4.73;100.00
29121;BME280;16191;49.548;8.658;2023-02-16T09:36:48;101540.69;;;4.90;100.00
29121;BME280;16191;49.548;8.658;2023-02-16T09:39:15;101538.16;;;5.21;100.00
29121;BME280;16191;49.548;8.658;2023-02-16T09:46:57;101538.19;;;5.46;100.00
29121;BME280;16191;49.548;8.658;2023-02-16T09:49:56;101537.34;;;5.70;100.00
29121;BME280;16191;49.548;8.658;2023-02-16T09:52:33;101544.25;;;5.77;100.00
29121;BME280;16191;49.548;8.658;2023-02-16T09:55:05;101544.25;;;5.93;100.00
29121;BME280;16191;49.548;8.658;2023-02-16T09:57:50;101532.16;;;6.04;100.00
29121;BME280;16191;49.548;8.658;2023-02-16T10:05:57;101504.34;;;6.54;100.00
29121;BME280;16191;49.548;8.658;2023-02-16T10:08:43;101513.00;;;6.50;100.00
29121;BME280;16191;49.548;8.658;2023-02-16T10:14:32;101513.72;;;6.87;100.00
29121;BME280;16191;49.548;8.658;2023-02-16T10:17:32;101504.06;;;7.11;100.00
29121;BME280;16191;49.548;8.658;2023-02-16T10:23:22;101489.28;;;7.17;100.00
29121;BME280;16191;49.548;8.658;2023-02-16T10:25:55;101500.47;;;7.29;100.00
29121;BME280;16191;49.548;8.658;2023-02-16T10:28:36;101497.44;;;7.79;100.00
29121;BME280;16191;49.548;8.658;2023-02-16T10:31:30;101493.81;;;7.97;100.00
29121;BME280;16191;49.548;8.658;2023-02-16T10:36:56;101498.00;;;8.07;100.00
29121;BME280;16191;49.548;8.658;2023-02-16T10:42:30;101496.88;;;8.31;99.63
29121;BME280;16191;49.548;8.658;2023-02-16T10:45:06;101504.19;;;8.73;97.90
29121;BME280;16191;49.548;8.658;2023-02-16T10:47:42;101488.34;;;8.90;95.46
29121;BME280;16191;49.548;8.658;2023-02-16T10:52:48;101485.41;;;9.13;90.56
29121;BME280;16191;49.548;8.658;2023-02-16T10:55:18;101486.50;;;8.97;91.36
29121;BME280;16191;49.548;8.658;2023-02-16T10:57:54;101482.72;;;9.19;90.13
29121;BME280;16191;49.548;8.658;2023-02-16T11:00:55;101475.63;;;9.28;89.63
29121;BME280;16191;49.548;8.658;2023-02-16T11:03:28;101471.91;;;9.43;89.43
29121;BME280;16191;49.548;8.658;2023-02-16T11:05:55;101469.59;;;9.25;92.16
29121;BME280;16191;49.548;8.658;2023-02-16T11:08:47;101464.22;;;8.79;94.66
29121;BME280;16191;49.548;8.658;2023-02-16T11:11:15;101461.56;;;8.83;92.74
29121;BME280;16191;49.548;8.658;2023-02-16T11:13:46;101457.22;;;9.38;89.70
29121;BME280;16191;49.548;8.658;2023-02-16T11:16:20;101452.34;;;9.18;86.31
29121;BME280;16191;49.548;8.658;2023-02-16T11:18:56;101448.13;;;9.61;86.04
29121;BME280;16191;49.548;8.658;2023-02-16T11:24:12;101451.63;;;9.08;83.90
29121;BME280;16191;49.548;8.658;2023-02-16T11:26:39;101446.47;;;9.07;86.94
29121;BME280;16191;49.548;8.658;2023-02-16T11:29:17;101443.06;;;9.00;88.58
29121;BME280;16191;49.548;8.658;2023-02-16T11:31:45;101433.94;;;9.28;86.08
29121;BME280;16191;49.548;8.658;2023-02-16T11:34:33;101430.53;;;9.74;80.79
29121;BME280;16191;49.548;8.658;2023-02-16T11:37:11;101424.28;;;9.83;79.40
29121;BME280;16191;49.548;8.658;2023-02-16T11:39:40;101414.63;;;9.88;79.25
29121;BME280;16191;49.548;8.658;2023-02-16T11:42:27;101414.41;;;9.98;80.13
29121;BME280;16191;49.548;8.658;2023-02-16T11:44:59;101409.22;;;9.97;80.95
29121;BME280;16191;49.548;8.658;2023-02-16T11:47:34;101409.31;;;9.92;80.32
29121;BME280;16191;49.548;8.658;2023-02-16T11:50:24;101406.31;;;9.69;78.75
29121;BME280;16191;49.548;8.658;2023-02-16T11:53:14;101401.28;;;9.58;78.31
29121;BME280;16191;49.548;8.658;2023-02-16T11:55:46;101395.22;;;9.56;82.23
29121;BME280;16191;49.548;8.658;2023-02-16T11:58:24;101384.72;;;9.61;81.83
29121;BME280;16191;49.548;8.658;2023-02-16T12:01:38;101385.09;;;9.87;82.00
29121;BME280;16191;49.548;8.658;2023-02-16T12:03:57;101375.91;;;10.11;77.53
29121;BME280;16191;49.548;8.658;2023-02-16T12:09:27;101366.50;;;10.44;76.51
29121;BME280;16191;49.548;8.658;2023-02-16T12:20:30;101379.94;;;10.66;72.49
29121;BME280;16191;49.548;8.658;2023-02-16T12:23:28;101373.41;;;10.84;74.40
29121;BME280;16191;49.548;8.658;2023-02-16T12:28:53;101369.78;;;10.91;72.41
29121;BME280;16191;49.548;8.658;2023-02-16T12:36:48;101361.50;;;10.74;75.66
29121;BME280;16191;49.548;8.658;2023-02-16T12:39:35;101367.63;;;10.71;79.27
29121;BME280;16191;49.548;8.658;2023-02-16T12:44:59;101353.31;;;10.52;76.70
29121;BME280;16191;49.548;8.658;2023-02-16T12:47:33;101349.63;;;10.60;76.83
29121;BME280;16191;49.548;8.658;2023-02-16T12:50:03;101354.53;;;10.74;78.48
29121;BME280;16191;49.548;8.658;2023-02-16T12:52:40;101348.06;;;10.89;76.84
29121;BME280;16191;49.548;8.658;2023-02-16T12:55:29;101344.88;;;11.12;75.62
29121;BME280;16191;49.548;8.658;2023-02-16T13:00:41;101333.00;;;11.00;76.92
29121;BME280;16191;49.548;8.658;2023-02-16T13:05:55;101338.22;;;11.00;75.66
29121;BME280;16191;49.548;8.658;2023-02-16T13:08:40;101331.41;;;11.27;77.35
29121;BME280;16191;49.548;8.658;2023-02-16T13:11:24;101319.16;;;11.29;75.24
29121;BME280;16191;49.548;8.658;2023-02-16T13:13:59;101321.28;;;11.15;74.15
29121;BME280;16191;49.548;8.658;2023-02-16T13:16:34;101315.88;;;11.22;74.27
29121;BME280;16191;49.548;8.658;2023-02-16T13:19:03;101301.53;;;11.37;76.70
29121;BME280;16191;49.548;8.658;2023-02-16T13:40:11;101280.09;;;11.55;72.04
29121;BME280;16191;49.548;8.658;2023-02-16T13:42:53;101283.00;;;11.46;72.45
29121;BME280;16191;49.548;8.658;2023-02-16T13:45:27;101276.88;;;11.47;71.84
29121;BME280;16191;49.548;8.658;2023-02-16T13:47:55;101282.34;;;11.38;74.13
29121;BME280;16191;49.548;8.658;2023-02-16T13:50:30;101278.75;;;11.42;72.96
29121;BME280;16191;49.548;8.658;2023-02-16T13:53:14;101263.72;;;11.49;72.61
29121;BME280;16191;49.548;8.658;2023-02-16T13:55:46;101260.22;;;11.50;74.42
29121;BME280;16191;49.548;8.658;2023-02-16T14:00:44;101259.16;;;11.57;73.10
29121;BME280;16191;49.548;8.658;2023-02-16T14:05:53;101258.13;;;11.62;71.80
29121;BME280;16191;49.548;8.658;2023-02-16T14:08:28;101249.34;;;11.65;72.89
29121;BME280;16191;49.548;8.658;2023-02-16T14:11:07;101250.75;;;11.75;71.36
29121;BME280;16191;49.548;8.658;2023-02-16T14:16:11;101249.34;;;11.94;70.88
29121;BME280;16191;49.548;8.658;2023-02-16T14:21:43;101237.31;;;11.89;70.06
29121;BME280;16191;49.548;8.658;2023-02-16T14:24:21;101244.09;;;11.94;72.42
29121;BME280;16191;49.548;8.658;2023-02-16T14:26:54;101244.09;;;11.94;71.76
29121;BME280;16191;49.548;8.658;2023-02-16T14:29:29;101244.31;;;11.88;71.06
29121;BME280;16191;49.548;8.658;2023-02-16T14:34:35;101234.22;;;12.04;69.38
29121;BME280;16191;49.548;8.658;2023-02-16T14:37:25;101238.38;;;12.11;69.17
29121;BME280;16191;49.548;8.658;2023-02-16T14:39:54;101230.66;;;12.07;68.89
29121;BME280;16191;49.548;8.658;2023-02-16T14:42:34;101238.47;;;12.08;67.54
29121;BME280;16191;49.548;8.658;2023-02-16T14:45:38;101236.00;;;12.04;69.95
29121;BME280;16191;49.548;8.658;2023-02-16T14:48:23;101232.69;;;11.97;71.06
29121;BME280;16191;49.548;8.658;2023-02-16T14:54:01;101238.81;;;11.96;68.70
29121;BME280;16191;49.548;8.658;2023-02-16T14:56:44;101238.91;;;11.93;70.45
29121;BME280;16191;49.548;8.658;2023-02-16T14:59:34;101229.34;;;11.92;69.09
29121;BME280;16191;49.548;8.658;2023-02-16T15:02:38;101239.19;;;11.85;71.27
29121;BME280;16191;49.548;8.658;2023-02-16T15:05:18;101223.41;;;11.88;72.98
29121;BME280;16191;49.548;8.658;2023-02-16T15:07:47;101223.53;;;11.84;72.91
29121;BME280;16191;49.548;8.658;2023-02-16T15:10:21;101228.63;;;11.88;75.52
29121;BME280;16191;49.548;8.658;2023-02-16T15:12:54;101220.91;;;11.84;73.37